Time;durP1;ratioP1;P1;durP2;ratioP2;P2;SDS_P1;SDS_P2;PMS_P1;PMS_P2;Temp;Humidity;BMP_temperature;BMP_pressure;BME280_temperature;BME280_humidity;BME280_pressure;Samples;Min_cycle;Max_cycle;Signal;HPM_P1;HPM_P2
2023/07/11 00:02:09;;;;;;;;;;;;;;;19.59;80.50;101580.50;10459087;28;20288;-66
2023/07/11 00:07:12;;;;;;;;;;;;;;;19.50;81.97;101579.44;10458941;28;19936;-66
2023/07/11 00:12:14;;;;;;;;;;;;;;;19.48;82.60;101576.94;10458643;28;19925;-66
2023/07/11 00:17:17;;;;;;;;;;;;;;;19.60;78.64;101560.91;10457340;28;19924;-66
2023/07/11 00:22:19;;;;;;;;;;;;;;;19.52;81.90;101564.25;10458452;28;20359;-66
2023/07/11 00:27:23;;;;;;;;;;;;;;;19.51;79.13;101564.38;10458746;28;20388;-66
2023/07/11 00:32:25;;;;;;;;;;;;;;;19.41;83.36;101561.63;10458191;28;19960;-66
2023/07/11 00:37:27;;;;;;;;;;;;;;;19.14;86.30;101564.75;10458051;28;19925;-66
2023/07/11 00:42:30;;;;;;;;;;;;;;;19.51;80.32;101548.44;10457452;28;20372;-66
2023/07/11 00:47:32;;;;;;;;;;;;;;;19.60;78.06;101548.50;10456563;28;19966;-66
2023/07/11 00:52:35;;;;;;;;;;;;;;;19.92;75.66;101546.75;10457416;28;19978;-66
2023/07/11 00:57:37;;;;;;;;;;;;;;;19.59;78.93;101548.63;10439603;28;20291;-66
2023/07/11 01:02:39;;;;;;;;;;;;;;;19.55;79.59;101545.41;10457244;28;19924;-66
2023/07/11 01:07:42;;;;;;;;;;;;;;;19.43;78.58;101549.06;10456150;28;20369;-66
2023/07/11 01:12:45;;;;;;;;;;;;;;;19.49;79.60;101541.41;10456961;28;19931;-66
2023/07/11 01:17:47;;;;;;;;;;;;;;;19.38;81.75;101546.78;10455688;28;19931;-66
2023/07/11 01:22:52;;;;;;;;;;;;;;;19.61;79.23;101544.03;10456878;28;19925;-66
2023/07/11 01:27:54;;;;;;;;;;;;;;;19.44;77.25;101537.47;10456554;28;19929;-66
2023/07/11 01:32:56;;;;;;;;;;;;;;;19.62;76.84;101540.41;10456623;28;19932;-66
2023/07/11 01:37:58;;;;;;;;;;;;;;;19.37;76.81;101531.84;10456500;28;19925;-66
2023/07/11 01:43:01;;;;;;;;;;;;;;;19.43;76.85;101523.38;10456626;28;19932;-66
2023/07/11 01:48:04;;;;;;;;;;;;;;;19.25;81.21;101519.59;10455004;28;20287;-66
2023/07/11 01:53:06;;;;;;;;;;;;;;;19.54;78.97;101500.38;10471442;28;19952;-66
2023/07/11 01:58:08;;;;;;;;;;;;;;;19.49;76.08;101498.09;10456035;28;19924;-66
2023/07/11 02:03:10;;;;;;;;;;;;;;;19.26;81.42;101492.88;10455988;28;19932;-66
2023/07/11 02:08:13;;;;;;;;;;;;;;;19.45;77.32;101476.28;10471874;28;19931;-66
2023/07/11 02:13:15;;;;;;;;;;;;;;;19.22;78.09;101477.38;10454658;28;19925;-66
2023/07/11 02:18:17;;;;;;;;;;;;;;;18.99;81.38;101472.13;10458680;28;19925;-66
2023/07/11 02:23:19;;;;;;;;;;;;;;;18.92;82.57;101465.66;10463155;28;19948;-66
2023/07/11 02:28:22;;;;;;;;;;;;;;;18.71;87.08;101462.91;10461906;28;19933;-66
2023/07/11 02:33:24;;;;;;;;;;;;;;;18.46;90.18;101458.75;10462822;28;20426;-65
2023/07/11 02:38:26;;;;;;;;;;;;;;;18.54;87.11;101451.88;10462416;28;20384;-65
2023/07/11 02:43:29;;;;;;;;;;;;;;;18.34;91.45;101445.53;10462453;28;19932;-65
2023/07/11 02:48:31;;;;;;;;;;;;;;;18.11;92.71;101444.69;10477667;28;19931;-65
2023/07/11 02:53:33;;;;;;;;;;;;;;;18.37;89.36;101437.34;10461863;28;19925;-65
2023/07/11 02:58:35;;;;;;;;;;;;;;;18.27;91.24;101435.53;10461936;28;19925;-65
2023/07/11 03:03:37;;;;;;;;;;;;;;;18.28;93.27;101431.91;10460550;28;19931;-66
2023/07/11 03:08:40;;;;;;;;;;;;;;;18.06;94.77;101425.69;10461785;28;19931;-65
2023/07/11 03:13:42;;;;;;;;;;;;;;;18.32;92.88;101420.94;10461215;28;19929;-65
2023/07/11 03:18:44;;;;;;;;;;;;;;;18.06;94.79;101407.13;10459814;28;19955;-65
2023/07/11 03:23:47;;;;;;;;;;;;;;;18.11;95.06;101412.91;10461334;28;20295;-65
2023/07/11 03:28:49;;;;;;;;;;;;;;;18.00;94.59;101408.47;10459787;28;19925;-65
2023/07/11 03:33:51;;;;;;;;;;;;;;;18.33;92.52;101404.06;10460314;28;19932;-65
2023/07/11 03:38:53;;;;;;;;;;;;;;;18.05;92.73;101388.69;10458959;28;20392;-65
2023/07/11 03:43:56;;;;;;;;;;;;;;;18.38;89.24;101388.63;10459754;28;19925;-65
2023/07/11 03:48:58;;;;;;;;;;;;;;;18.23;93.29;101402.28;10459958;28;19925;-65
2023/07/11 03:54:01;;;;;;;;;;;;;;;18.28;88.82;101384.22;10458527;28;19928;-65
2023/07/11 03:59:03;;;;;;;;;;;;;;;18.25;91.18;101387.94;10459610;28;19925;-65
2023/07/11 04:04:05;;;;;;;;;;;;;;;18.12;92.82;101379.28;10459195;28;20359;-65
2023/07/11 04:09:08;;;;;;;;;;;;;;;18.05;94.30;101376.28;10459265;28;19924;-65
2023/07/11 04:14:10;;;;;;;;;;;;;;;18.22;92.33;101374.94;10458925;28;19925;-65
2023/07/11 04:19:12;;;;;;;;;;;;;;;18.50;86.86;101372.69;10458565;28;20397;-65
2023/07/11 04:24:15;;;;;;;;;;;;;;;18.63;85.96;101361.94;10458459;28;19939;-65
2023/07/11 04:29:17;;;;;;;;;;;;;;;18.62;86.64;101354.94;10458241;28;20328;-65
2023/07/11 04:34:19;;;;;;;;;;;;;;;18.65;86.82;101358.19;10457051;28;19925;-65
2023/07/11 04:39:21;;;;;;;;;;;;;;;18.88;83.54;101358.13;10458232;28;20011;-65
2023/07/11 04:44:24;;;;;;;;;;;;;;;19.20;83.59;101349.22;10457517;28;19947;-65
2023/07/11 04:49:26;;;;;;;;;;;;;;;18.97;82.73;101348.53;10457467;28;20380;-65
2023/07/11 04:54:29;;;;;;;;;;;;;;;19.15;82.83;101336.38;10457435;28;19990;-65
2023/07/11 04:59:31;;;;;;;;;;;;;;;19.11;82.55;101332.28;10456028;28;20287;-65
2023/07/11 05:04:33;;;;;;;;;;;;;;;19.32;80.95;101329.59;10457009;28;20019;-66
2023/07/11 05:09:36;;;;;;;;;;;;;;;19.36;83.68;101330.19;10457137;28;19931;-65
2023/07/11 05:14:51;;;;;;;;;;;;;;;19.45;82.40;101324.91;10456818;28;20376;-65
2023/07/11 05:19:53;;;;;;;;;;;;;;;19.53;82.81;101326.88;10457003;28;19956;-65
2023/07/11 05:24:55;;;;;;;;;;;;;;;19.61;80.61;101316.44;10455581;28;19925;-66
2023/07/11 05:29:58;;;;;;;;;;;;;;;19.70;81.58;101314.78;10456519;28;20268;-66
2023/07/11 05:35:00;;;;;;;;;;;;;;;19.65;80.02;101303.72;10455186;28;20367;-66
2023/07/11 05:40:02;;;;;;;;;;;;;;;19.72;79.80;101299.56;10456388;28;19939;-65
2023/07/11 05:45:05;;;;;;;;;;;;;;;19.93;78.68;101294.19;10456139;28;20253;-65
2023/07/11 05:50:07;;;;;;;;;;;;;;;19.94;77.40;101287.03;10456071;28;20375;-66
2023/07/11 05:55:09;;;;;;;;;;;;;;;20.08;78.95;101280.50;10462319;28;19955;-66
2023/07/11 06:00:12;;;;;;;;;;;;;;;20.31;77.24;101275.75;10464542;28;19931;-65
2023/07/11 06:05:14;;;;;;;;;;;;;;;20.08;77.27;101269.88;10463868;28;20267;-65
2023/07/11 06:10:16;;;;;;;;;;;;;;;20.37;76.89;101251.25;10463829;28;19925;-66
2023/07/11 06:15:18;;;;;;;;;;;;;;;20.57;76.24;101257.41;10463376;28;20352;-65
2023/07/11 06:20:21;;;;;;;;;;;;;;;20.58;75.66;101251.94;10462560;28;19939;-65
2023/07/11 06:25:23;;;;;;;;;;;;;;;20.86;75.15;101251.22;10463410;28;19925;-66
2023/07/11 06:30:25;;;;;;;;;;;;;;;21.01;74.34;101255.09;10462774;28;19925;-66
2023/07/11 06:35:27;;;;;;;;;;;;;;;21.19;73.35;101249.00;10463186;28;19975;-66
2023/07/11 06:40:30;;;;;;;;;;;;;;;21.62;72.07;101251.06;10461365;28;19932;-66
2023/07/11 06:45:32;;;;;;;;;;;;;;;21.59;72.27;101240.69;10462271;28;19935;-66
2023/07/11 06:50:34;;;;;;;;;;;;;;;21.78;70.38;101239.72;10461335;28;19937;-66
2023/07/11 06:55:36;;;;;;;;;;;;;;;21.86;71.54;101233.66;10469261;23;19931;-66
2023/07/11 07:00:39;;;;;;;;;;;;;;;22.04;70.67;101223.84;10461859;28;19925;-66
2023/07/11 07:05:51;;;;;;;;;;;;;;;22.22;69.01;101225.63;10460249;28;20291;-66
2023/07/11 07:10:53;;;;;;;;;;;;;;;22.60;69.72;101221.78;10442832;28;19935;-67
2023/07/11 07:15:57;;;;;;;;;;;;;;;22.83;67.51;101226.63;10443002;28;19925;-67
2023/07/11 07:20:59;;;;;;;;;;;;;;;23.44;65.36;101229.25;10461333;28;19959;-67
2023/07/11 07:26:02;;;;;;;;;;;;;;;23.53;64.41;101233.63;10460926;28;19952;-67
2023/07/11 07:31:05;;;;;;;;;;;;;;;24.35;63.31;101224.91;10460497;28;19932;-67
2023/07/11 07:36:09;;;;;;;;;;;;;;;24.72;61.71;101229.72;10460311;28;20264;-67
2023/07/11 07:41:11;;;;;;;;;;;;;;;25.25;60.84;101227.38;10460282;28;19931;-67
2023/07/11 07:46:15;;;;;;;;;;;;;;;25.47;59.09;101220.44;10459922;28;19935;-67
2023/07/11 07:51:18;;;;;;;;;;;;;;;26.10;57.38;101205.09;10442739;28;19925;-68
2023/07/11 07:56:21;;;;;;;;;;;;;;;26.94;56.49;101195.25;10459410;28;19924;-67
2023/07/11 08:01:23;;;;;;;;;;;;;;;26.66;55.54;101201.25;10459460;28;20028;-67
2023/07/11 08:06:25;;;;;;;;;;;;;;;26.73;54.10;101198.66;10459218;28;19931;-67
2023/07/11 08:11:27;;;;;;;;;;;;;;;27.30;53.35;101195.28;10459047;28;19932;-67
2023/07/11 08:16:30;;;;;;;;;;;;;;;27.90;51.39;101181.66;10440739;28;20311;-66
2023/07/11 08:21:35;;;;;;;;;;;;;;;27.97;48.49;101179.88;10441419;28;20037;-67
2023/07/11 08:26:38;;;;;;;;;;;;;;;28.06;48.28;101180.56;10440754;28;19971;-68
2023/07/11 08:31:40;;;;;;;;;;;;;;;28.63;47.97;101168.78;10458153;28;20375;-68
2023/07/11 08:36:43;;;;;;;;;;;;;;;28.45;47.69;101173.81;10457997;28;19925;-67
2023/07/11 08:41:47;;;;;;;;;;;;;;;28.48;47.21;101157.25;10457837;28;19931;-68
2023/07/11 08:46:57;;;;;;;;;;;;;;;28.49;46.56;101161.63;10440199;28;20395;-68
2023/07/11 08:51:59;;;;;;;;;;;;;;;28.33;48.94;101162.78;10439959;28;19925;-68
2023/07/11 08:57:01;;;;;;;;;;;;;;;29.27;46.13;101158.72;10423760;28;20001;-68
2023/07/11 09:02:16;;;;;;;;;;;;;;;29.65;46.17;101167.09;10457648;28;20008;-67
2023/07/11 09:07:36;;;;;;;;;;;;;;;30.03;43.84;101144.09;10439655;28;19925;-68
2023/07/11 09:12:47;;;;;;;;;;;;;;;29.92;44.52;101142.84;10439489;28;19924;-68
2023/07/11 09:18:10;;;;;;;;;;;;;;;30.37;43.86;101126.00;10439139;28;19924;-68
2023/07/11 09:23:13;;;;;;;;;;;;;;;29.59;43.98;101138.25;10439038;28;19931;-68
2023/07/11 09:28:26;;;;;;;;;;;;;;;29.53;46.01;101143.63;10460174;28;19928;-68
2023/07/11 09:33:32;;;;;;;;;;;;;;;29.19;45.15;101138.16;10447599;28;19925;-68
2023/07/11 09:38:42;;;;;;;;;;;;;;;30.70;43.27;101141.31;10447282;28;20327;-68
2023/07/11 09:43:44;;;;;;;;;;;;;;;29.71;44.62;101141.16;10447233;28;19928;-68
2023/07/11 09:48:46;;;;;;;;;;;;;;;28.68;44.61;101133.16;10464432;28;19971;-68
2023/07/11 09:53:49;;;;;;;;;;;;;;;29.85;44.28;101119.63;10446803;28;19925;-68
2023/07/11 09:58:52;;;;;;;;;;;;;;;29.91;45.07;101113.34;10464207;28;19932;-68
2023/07/11 10:03:55;;;;;;;;;;;;;;;29.82;45.99;101119.00;10464249;28;19928;-68
2023/07/11 10:08:58;;;;;;;;;;;;;;;30.04;44.45;101117.94;10446122;28;19925;-68
2023/07/11 10:14:02;;;;;;;;;;;;;;;30.62;42.61;101109.09;10445789;28;20368;-68
2023/07/11 10:19:04;;;;;;;;;;;;;;;29.85;43.23;101098.84;10463605;28;20023;-68
2023/07/11 10:24:12;;;;;;;;;;;;;;;30.05;43.01;101093.44;10445602;28;20286;-68
2023/07/11 10:29:16;;;;;;;;;;;;;;;31.69;40.96;101087.72;10445388;28;19929;-68
2023/07/11 10:34:39;;;;;;;;;;;;;;;31.22;40.99;101095.31;10462805;28;20419;-68
2023/07/11 10:39:43;;;;;;;;;;;;;;;32.34;39.53;101081.03;10444956;28;19925;-68
2023/07/11 10:44:46;;;;;;;;;;;;;;;31.80;42.05;101078.84;10444782;28;20016;-68
2023/07/11 10:49:49;;;;;;;;;;;;;;;32.50;40.63;101076.91;10462517;28;20015;-68
2023/07/11 10:55:09;;;;;;;;;;;;;;;32.30;39.28;101060.91;10461921;28;20275;-69
2023/07/11 11:00:16;;;;;;;;;;;;;;;33.22;38.00;101063.47;10444431;28;20019;-69
2023/07/11 11:05:31;;;;;;;;;;;;;;;32.23;38.10;101055.56;10444480;28;20295;-69
2023/07/11 11:10:41;;;;;;;;;;;;;;;33.11;34.26;101048.75;10461363;28;19925;-69
2023/07/11 11:15:46;;;;;;;;;;;;;;;32.32;37.85;101042.53;10443730;28;19932;-68
2023/07/11 11:20:58;;;;;;;;;;;;;;;32.73;39.83;101047.25;10461268;28;20336;-69
2023/07/11 11:26:23;;;;;;;;;;;;;;;31.04;40.19;101042.81;10461432;28;19978;-69
2023/07/11 11:31:27;;;;;;;;;;;;;;;33.06;38.19;101035.06;10426877;28;19931;-69
2023/07/11 11:36:30;;;;;;;;;;;;;;;32.58;38.98;101027.78;10460277;28;19979;-69
2023/07/11 11:41:35;;;;;;;;;;;;;;;33.05;39.06;101029.88;10442895;28;19925;-69
2023/07/11 11:46:38;;;;;;;;;;;;;;;35.03;37.67;101022.78;10442770;28;19931;-69
2023/07/11 11:51:41;;;;;;;;;;;;;;;33.37;38.31;101022.28;10441387;28;20352;-69
2023/07/11 11:56:44;;;;;;;;;;;;;;;32.68;40.22;101028.13;10442140;28;19971;-68
2023/07/11 12:01:53;;;;;;;;;;;;;;;33.15;38.64;101030.16;10441719;28;19928;-69
2023/07/11 12:07:01;;;;;;;;;;;;;;;33.39;37.96;101024.78;10459187;28;20407;-69
2023/07/11 12:12:03;;;;;;;;;;;;;;;33.35;37.62;101016.28;10458997;28;19959;-68
2023/07/11 12:17:16;;;;;;;;;;;;;;;33.37;38.94;101013.34;10459065;28;19925;-75
2023/07/11 12:22:19;;;;;;;;;;;;;;;34.05;37.04;101003.75;10440972;28;20342;-66
2023/07/11 12:27:21;;;;;;;;;;;;;;;32.58;37.42;101001.53;10458492;28;19925;-64
2023/07/11 12:32:32;;;;;;;;;;;;;;;33.21;37.57;100993.97;10458335;28;20298;-66
2023/07/11 12:37:40;;;;;;;;;;;;;;;33.61;38.21;100979.72;10458399;28;19951;-64
2023/07/11 12:42:59;;;;;;;;;;;;;;;33.64;38.12;100979.25;10458435;28;19928;-65
2023/07/11 12:48:18;;;;;;;;;;;;;;;33.02;39.92;100982.38;10457988;28;19924;-64
2023/07/11 12:53:20;;;;;;;;;;;;;;;33.06;37.60;100980.84;10439954;28;20284;-65
2023/07/11 12:58:23;;;;;;;;;;;;;;;34.37;37.09;100966.13;10415028;28;19925;-65
2023/07/11 13:03:26;;;;;;;;;;;;;;;33.85;37.91;100956.09;10416098;28;20020;-65
2023/07/11 13:08:33;;;;;;;;;;;;;;;33.49;36.72;100958.00;10416019;28;19925;-65
2023/07/11 13:13:35;;;;;;;;;;;;;;;34.12;37.99;100958.28;10415714;28;20402;-65
2023/07/11 13:18:47;;;;;;;;;;;;;;;33.94;37.52;100948.38;10414488;28;19925;-65
2023/07/11 13:23:49;;;;;;;;;;;;;;;34.54;37.30;100947.13;10414690;28;19925;-65
2023/07/11 13:29:03;;;;;;;;;;;;;;;33.80;37.32;100936.97;10415525;28;19925;-65
2023/07/11 13:34:11;;;;;;;;;;;;;;;32.92;38.03;100936.84;10415308;28;19925;-64
2023/07/11 13:39:15;;;;;;;;;;;;;;;34.32;36.87;100927.97;10415480;28;19972;-65
2023/07/11 13:44:26;;;;;;;;;;;;;;;33.68;37.37;100922.63;10415354;28;19925;-65
2023/07/11 13:49:38;;;;;;;;;;;;;;;33.74;37.67;100912.69;10416183;28;19975;-65
2023/07/11 13:54:40;;;;;;;;;;;;;;;34.14;37.36;100915.38;10415095;28;19972;-65
2023/07/11 13:59:43;;;;;;;;;;;;;;;34.93;36.62;100902.94;10451944;28;20299;-65
2023/07/11 14:04:46;;;;;;;;;;;;;;;33.01;38.11;100902.06;10454319;28;19924;-65
2023/07/11 14:09:48;;;;;;;;;;;;;;;34.23;38.05;100894.13;10454183;28;19956;-65
2023/07/11 14:14:51;;;;;;;;;;;;;;;32.68;39.35;100892.63;10457783;28;19925;-65
2023/07/11 14:19:53;;;;;;;;;;;;;;;32.54;40.53;100891.13;10443216;28;20388;-65
2023/07/11 14:24:55;;;;;;;;;;;;;;;32.19;41.26;100897.25;10461105;28;19928;-65
2023/07/11 14:29:58;;;;;;;;;;;;;;;31.59;41.91;100890.69;10460680;28;20335;-64
2023/07/11 14:35:00;;;;;;;;;;;;;;;32.12;42.30;100882.97;10460371;28;20372;-64
2023/07/11 14:40:03;;;;;;;;;;;;;;;32.83;40.52;100875.88;10460291;28;19931;-64
2023/07/11 14:45:11;;;;;;;;;;;;;;;32.54;40.64;100881.09;10460304;28;19936;-65
2023/07/11 14:50:17;;;;;;;;;;;;;;;32.74;41.07;100864.56;10442886;28;19924;-66
2023/07/11 14:55:21;;;;;;;;;;;;;;;32.98;39.71;100861.03;10379488;28;1791253;-64
2023/07/11 15:00:26;;;;;;;;;;;;;;;32.90;40.31;100862.19;10462122;28;19925;-66
2023/07/11 15:05:29;;;;;;;;;;;;;;;33.51;41.17;100850.03;10444075;28;19931;-66
2023/07/11 15:10:34;;;;;;;;;;;;;;;32.86;41.82;100850.19;10444349;28;20338;-66
2023/07/11 15:15:36;;;;;;;;;;;;;;;32.98;39.67;100847.47;10461538;28;19924;-65
2023/07/11 15:20:38;;;;;;;;;;;;;;;32.95;42.06;100843.34;10461801;28;20016;-65
2023/07/11 15:25:42;;;;;;;;;;;;;;;34.47;39.81;100835.03;10459807;28;20261;-65
2023/07/11 15:30:44;;;;;;;;;;;;;;;34.79;38.42;100826.31;10443138;28;20383;-65
2023/07/11 15:35:46;;;;;;;;;;;;;;;33.63;37.49;100824.75;10460464;28;20376;-65
2023/07/11 15:40:49;;;;;;;;;;;;;;;32.09;41.09;100821.16;10460429;28;19931;-65
2023/07/11 15:45:51;;;;;;;;;;;;;;;31.60;43.30;100819.25;10442539;28;19924;-65
2023/07/11 15:50:54;;;;;;;;;;;;;;;31.30;44.45;100821.88;10442293;28;19931;-64
2023/07/11 15:55:56;;;;;;;;;;;;;;;32.19;44.26;100797.03;10459403;28;19925;-64
2023/07/11 16:00:58;;;;;;;;;;;;;;;32.48;42.87;100803.47;10459534;28;19924;-65
2023/07/11 16:06:00;;;;;;;;;;;;;;;32.69;42.05;100791.25;10459793;28;19924;-65
2023/07/11 16:11:03;;;;;;;;;;;;;;;32.24;42.07;100788.22;10441451;28;19925;-65
2023/07/11 16:16:15;;;;;;;;;;;;;;;32.61;44.08;100788.88;10458848;28;20016;-65
2023/07/11 16:21:18;;;;;;;;;;;;;;;31.98;44.38;100799.19;10459106;28;19947;-64
2023/07/11 16:26:21;;;;;;;;;;;;;;;31.28;45.03;100786.13;10458724;28;19925;-65
2023/07/11 16:31:23;;;;;;;;;;;;;;;30.98;45.32;100778.75;10424893;28;20027;-64
2023/07/11 16:36:28;;;;;;;;;;;;;;;30.76;47.48;100781.00;10457833;28;19924;-65
2023/07/11 16:41:30;;;;;;;;;;;;;;;30.77;46.78;100785.38;10440393;28;19948;-65
2023/07/11 16:46:33;;;;;;;;;;;;;;;30.67;45.61;100780.47;10457902;28;19931;-65
2023/07/11 16:51:35;;;;;;;;;;;;;;;31.13;46.98;100777.56;10457609;28;19928;-65
2023/07/11 16:56:37;;;;;;;;;;;;;;;31.02;46.74;100762.91;10457372;28;20287;-64
2023/07/11 17:01:39;;;;;;;;;;;;;;;31.60;46.32;100761.63;10457370;28;19979;-64
2023/07/11 17:06:42;;;;;;;;;;;;;;;30.93;46.33;100759.63;10439830;28;20066;-64
2023/07/11 17:11:45;;;;;;;;;;;;;;;31.34;45.86;100746.50;10456952;28;20018;-64
2023/07/11 17:16:55;;;;;;;;;;;;;;;30.83;46.71;100752.03;10456880;28;19931;-64
2023/07/11 17:21:58;;;;;;;;;;;;;;;30.44;46.07;100740.56;10457303;28;19931;-65
2023/07/11 17:27:01;;;;;;;;;;;;;;;30.09;49.94;100726.69;10439255;28;19929;-65
2023/07/11 17:32:04;;;;;;;;;;;;;;;29.73;50.76;100734.38;10439129;28;19925;-65
2023/07/11 17:37:37;;;;;;;;;;;;;;;30.05;51.26;100731.72;10456460;28;20402;-66
2023/07/11 17:42:39;;;;;;;;;;;;;;;29.18;52.06;100717.84;10455127;28;19932;-64
2023/07/11 17:47:41;;;;;;;;;;;;;;;29.17;53.11;100722.41;10456964;28;19931;-65
2023/07/11 17:53:03;;;;;;;;;;;;;;;29.04;54.50;100717.84;10464419;28;20261;-65
2023/07/11 17:58:18;;;;;;;;;;;;;;;28.73;55.36;100715.84;10464270;28;19935;-65
2023/07/11 18:03:20;;;;;;;;;;;;;;;28.75;55.73;100718.31;10465021;28;19932;-65
2023/07/11 18:08:24;;;;;;;;;;;;;;;29.10;55.66;100705.38;10446461;28;20007;-65
2023/07/11 18:13:28;;;;;;;;;;;;;;;28.84;56.76;100703.59;10446146;28;20027;-65
2023/07/11 18:18:33;;;;;;;;;;;;;;;28.41;57.49;100686.06;10463855;28;19932;-65
2023/07/11 18:23:36;;;;;;;;;;;;;;;28.23;58.33;100678.59;10446384;28;19971;-65
2023/07/11 18:28:38;;;;;;;;;;;;;;;28.19;58.49;100671.97;10445912;28;19932;-65
2023/07/11 18:33:40;;;;;;;;;;;;;;;28.25;59.47;100673.81;10462901;28;19928;-65
2023/07/11 18:38:42;;;;;;;;;;;;;;;27.69;60.03;100669.63;10463361;28;19935;-64
2023/07/11 18:43:45;;;;;;;;;;;;;;;27.49;61.57;100674.09;10462660;28;20370;-64
2023/07/11 18:48:47;;;;;;;;;;;;;;;27.52;60.86;100671.03;10463143;28;19925;-65
2023/07/11 18:53:49;;;;;;;;;;;;;;;27.13;62.95;100659.09;10462194;28;20028;-65
2023/07/11 18:58:51;;;;;;;;;;;;;;;27.23;62.89;100663.06;10462478;28;19931;-64
2023/07/11 19:03:54;;;;;;;;;;;;;;;26.90;63.73;100662.91;10461714;28;20310;-64
2023/07/11 19:08:57;;;;;;;;;;;;;;;26.93;63.61;100650.94;10461687;28;19960;-65
2023/07/11 19:13:59;;;;;;;;;;;;;;;26.62;64.53;100665.63;10468872;22;20291;-64
2023/07/11 19:19:01;;;;;;;;;;;;;;;26.48;64.80;100643.22;10461232;28;19925;-63
2023/07/11 19:24:04;;;;;;;;;;;;;;;26.19;65.88;100645.06;10461050;28;20269;-63
2023/07/11 19:29:08;;;;;;;;;;;;;;;26.33;65.44;100654.88;10461047;28;19931;-63
2023/07/11 19:34:10;;;;;;;;;;;;;;;25.83;67.00;100658.56;10459394;28;20011;-64
2023/07/11 19:39:12;;;;;;;;;;;;;;;25.66;67.70;100649.94;10460679;28;19932;-64
2023/07/11 19:44:15;;;;;;;;;;;;;;;25.63;68.05;100661.88;10460195;28;20291;-64
2023/07/11 19:49:17;;;;;;;;;;;;;;;25.26;68.29;100676.28;10460562;28;19952;-64
2023/07/11 19:54:19;;;;;;;;;;;;;;;25.29;68.92;100695.50;10459895;28;20020;-64
2023/07/11 19:59:21;;;;;;;;;;;;;;;25.35;69.46;100692.09;10459655;28;19924;-64
2023/07/11 20:04:24;;;;;;;;;;;;;;;25.31;70.40;100703.38;10459683;28;19932;-64
2023/07/11 20:09:27;;;;;;;;;;;;;;;25.34;70.71;100724.44;10459191;28;19928;-64
2023/07/11 20:14:29;;;;;;;;;;;;;;;25.27;71.99;100715.47;10458169;28;19931;-64
2023/07/11 20:19:31;;;;;;;;;;;;;;;25.33;71.58;100706.69;10459046;28;20286;-64
2023/07/11 20:24:33;;;;;;;;;;;;;;;25.19;72.51;100716.38;10458602;28;20003;-64
2023/07/11 20:29:36;;;;;;;;;;;;;;;24.89;73.72;100708.34;10458413;28;19925;-64
2023/07/11 20:34:38;;;;;;;;;;;;;;;24.69;74.35;100731.31;10458320;28;19925;-64
2023/07/11 20:39:41;;;;;;;;;;;;;;;24.93;70.93;100715.00;10458042;28;20283;-64
2023/07/11 20:44:43;;;;;;;;;;;;;;;24.84;70.37;100708.88;10458114;28;19931;-64
2023/07/11 20:49:46;;;;;;;;;;;;;;;24.62;70.45;100737.38;10457689;28;20386;-64
2023/07/11 20:54:48;;;;;;;;;;;;;;;24.18;71.30;100740.75;10457615;28;19932;-64
2023/07/11 20:59:50;;;;;;;;;;;;;;;24.19;71.65;100733.53;10457338;28;20386;-64
2023/07/11 21:04:52;;;;;;;;;;;;;;;23.81;72.35;100736.97;10457227;28;19946;-63
2023/07/11 21:09:55;;;;;;;;;;;;;;;23.52;71.71;100762.50;10457305;28;19925;-63
2023/07/11 21:14:58;;;;;;;;;;;;;;;23.60;69.44;100739.41;10456597;28;19976;-63
2023/07/11 21:20:00;;;;;;;;;;;;;;;23.04;69.69;100734.91;10457104;28;19924;-64
2023/07/11 21:25:03;;;;;;;;;;;;;;;23.27;68.85;100747.59;10471088;28;20450;-64
2023/07/11 21:30:17;;;;;;;;;;;;;;;23.30;68.25;100764.09;10456835;28;19925;-63
2023/07/11 21:35:21;;;;;;;;;;;;;;;23.13;67.47;100757.13;10456421;28;19925;-64
2023/07/11 21:40:24;;;;;;;;;;;;;;;23.09;66.78;100761.97;10456650;28;19925;-63
2023/07/11 21:45:26;;;;;;;;;;;;;;;23.23;66.77;100762.28;10456405;28;20386;-63
2023/07/11 21:50:33;;;;;;;;;;;;;;;22.74;67.87;100784.53;10455168;28;20443;-64
2023/07/11 21:55:36;;;;;;;;;;;;;;;22.84;68.24;100785.19;10456234;28;19932;-63
2023/07/11 22:00:40;;;;;;;;;;;;;;;22.81;70.26;100793.53;10455005;28;19925;-63
2023/07/11 22:05:44;;;;;;;;;;;;;;;22.29;74.33;100772.50;10456142;28;19929;-63
2023/07/11 22:10:46;;;;;;;;;;;;;;;21.76;85.25;100820.69;10454681;28;20011;-63
2023/07/11 22:15:49;;;;;;;;;;;;;;;21.33;100.00;100870.38;10454864;28;19932;-66
2023/07/11 22:20:51;;;;;;;;;;;;;;;20.59;100.00;100780.16;10455763;28;19924;-68
2023/07/11 22:25:53;;;;;;;;;;;;;;;20.82;100.00;100760.25;10455638;28;19931;-68
2023/07/11 22:30:59;;;;;;;;;;;;;;;20.89;100.00;100767.44;10455603;28;19925;-68
2023/07/11 22:36:01;;;;;;;;;;;;;;;20.64;100.00;100761.09;10459459;28;19956;-67
2023/07/11 22:41:05;;;;;;;;;;;;;;;20.88;100.00;100770.25;10462782;28;19925;-67
2023/07/11 22:46:16;;;;;;;;;;;;;;;20.95;100.00;100769.47;10462603;28;19956;-67
2023/07/11 22:51:18;;;;;;;;;;;;;;;20.97;100.00;100779.97;10462614;28;19932;-66
2023/07/11 22:56:21;;;;;;;;;;;;;;;20.77;100.00;100790.78;10462063;28;20382;-65
2023/07/11 23:01:25;;;;;;;;;;;;;;;20.86;100.00;100782.88;10461540;28;19926;-66
2023/07/11 23:06:27;;;;;;;;;;;;;;;20.72;100.00;100790.41;10461815;28;19935;-65
2023/07/11 23:11:29;;;;;;;;;;;;;;;20.84;100.00;100779.53;10461537;28;19925;-65
2023/07/11 23:16:32;;;;;;;;;;;;;;;20.20;100.00;100787.63;10461581;28;20379;-66
2023/07/11 23:21:34;;;;;;;;;;;;;;;20.35;100.00;100793.25;10461231;28;19932;-66
2023/07/11 23:26:36;;;;;;;;;;;;;;;20.40;100.00;100778.50;10461275;28;19925;-65
2023/07/11 23:31:38;;;;;;;;;;;;;;;20.43;100.00;100772.03;10460948;28;19925;-66
2023/07/11 23:36:41;;;;;;;;;;;;;;;20.27;100.00;100756.78;10460495;28;19931;-65
2023/07/11 23:41:43;;;;;;;;;;;;;;;20.01;100.00;100756.69;10460647;28;19924;-66
2023/07/11 23:46:45;;;;;;;;;;;;;;;20.21;100.00;100747.59;10459291;28;19931;-66
2023/07/11 23:51:50;;;;;;;;;;;;;;;19.89;100.00;100755.22;10460075;28;20291;-65
2023/07/11 23:56:52;;;;;;;;;;;;;;;19.92;100.00;100752.28;10459830;28;19925;-65
